Time;durP1;ratioP1;P1;durP2;ratioP2;P2;SDS_P1;SDS_P2;PMS_P1;PMS_P2;Temp;Humidity;BMP_temperature;BMP_pressure;BME280_temperature;BME280_humidity;BME280_pressure;Samples;Min_cycle;Max_cycle;Signal;HPM_P1;HPM_P2
2023/03/10 00:00:47;;;;;;;18.42;2.20;;;;;;;;;;5013664;28;20040;-44
2023/03/10 00:03:14;;;;;;;22.58;2.80;;;;;;;;;;5012768;28;20583;-38
2023/03/10 00:05:41;;;;;;;22.05;3.03;;;;;;;;;;5009085;28;20034;-35
2023/03/10 00:08:08;;;;;;;17.00;2.53;;;;;;;;;;5008747;28;20033;-44
2023/03/10 00:10:35;;;;;;;18.88;2.22;;;;;;;;;;5008965;28;20033;-36
2023/03/10 00:13:02;;;;;;;12.18;2.30;;;;;;;;;;5010250;28;20037;-39
2023/03/10 00:15:30;;;;;;;9.00;1.83;;;;;;;;;;5008991;28;20034;-44
2023/03/10 00:17:57;;;;;;;16.45;2.28;;;;;;;;;;5008990;28;20038;-33
2023/03/10 00:20:24;;;;;;;10.95;2.08;;;;;;;;;;5008926;28;20687;-43
2023/03/10 00:22:51;;;;;;;10.27;2.00;;;;;;;;;;5008809;28;20149;-38
2023/03/10 00:25:18;;;;;;;11.75;2.63;;;;;;;;;;5008541;28;20041;-43
2023/03/10 00:27:51;;;;;;;10.93;2.67;;;;;;;;;;5009056;28;20053;-36
2023/03/10 00:30:18;;;;;;;9.45;2.08;;;;;;;;;;5009678;28;20092;-44
2023/03/10 00:32:45;;;;;;;14.98;3.70;;;;;;;;;;5010118;28;20030;-43
2023/03/10 00:35:12;;;;;;;19.33;4.10;;;;;;;;;;5009907;28;20112;-36
2023/03/10 00:37:39;;;;;;;14.38;4.07;;;;;;;;;;5010001;28;20047;-39
2023/03/10 00:40:13;;;;;;;10.80;3.42;;;;;;;;;;5032773;22;20058;-36
2023/03/10 00:42:40;;;;;;;20.23;4.32;;;;;;;;;;5024383;28;20136;-36
2023/03/10 00:45:07;;;;;;;13.00;3.33;;;;;;;;;;5030078;28;20124;-35
2023/03/10 00:47:34;;;;;;;12.43;2.53;;;;;;;;;;5020937;28;20514;-36
2023/03/10 00:50:01;;;;;;;11.70;2.80;;;;;;;;;;5011550;28;20033;-36
2023/03/10 00:52:31;;;;;;;8.05;1.90;;;;;;;;;;5009526;28;20484;-38
2023/03/10 00:54:58;;;;;;;10.23;2.35;;;;;;;;;;5009696;28;20072;-36
2023/03/10 00:57:25;;;;;;;7.25;2.20;;;;;;;;;;5008025;28;20434;-38
2023/03/10 00:59:52;;;;;;;7.32;2.10;;;;;;;;;;4990969;28;20382;-35
2023/03/10 01:02:20;;;;;;;5.30;1.90;;;;;;;;;;5010320;28;20034;-36
2023/03/10 01:04:47;;;;;;;9.13;1.95;;;;;;;;;;5009621;28;20038;-36
2023/03/10 01:07:14;;;;;;;5.43;2.00;;;;;;;;;;5013819;28;20017;-37
2023/03/10 01:09:41;;;;;;;5.53;1.95;;;;;;;;;;5030292;28;20025;-37
2023/03/10 01:12:08;;;;;;;5.15;1.77;;;;;;;;;;5030108;28;20033;-36
2023/03/10 01:14:35;;;;;;;5.60;1.60;;;;;;;;;;5029930;28;20076;-38
2023/03/10 01:17:04;;;;;;;11.48;1.90;;;;;;;;;;5024943;28;20034;-35
2023/03/10 01:19:31;;;;;;;5.43;1.95;;;;;;;;;;5016517;28;20087;-37
2023/03/10 01:21:58;;;;;;;7.00;1.60;;;;;;;;;;5022030;28;20387;-35
2023/03/10 01:24:26;;;;;;;11.52;1.80;;;;;;;;;;5002539;28;20567;-35
2023/03/10 01:26:53;;;;;;;4.97;1.42;;;;;;;;;;5021031;28;20120;-39
2023/03/10 01:29:20;;;;;;;7.55;1.70;;;;;;;;;;5025469;28;20029;-38
2023/03/10 01:31:47;;;;;;;9.60;1.90;;;;;;;;;;5027459;28;20036;-40
2023/03/10 01:34:14;;;;;;;12.88;1.70;;;;;;;;;;5010718;28;20088;-39
2023/03/10 01:36:41;;;;;;;9.93;1.65;;;;;;;;;;5010615;28;20057;-39
2023/03/10 01:39:08;;;;;;;11.35;1.92;;;;;;;;;;5020538;28;20054;-35
2023/03/10 01:41:38;;;;;;;11.65;1.73;;;;;;;;;;5017593;28;20407;-39
2023/03/10 01:44:05;;;;;;;8.75;1.73;;;;;;;;;;5019622;28;20021;-36
2023/03/10 01:46:32;;;;;;;14.88;1.88;;;;;;;;;;5021193;28;20033;-39
2023/03/10 01:49:00;;;;;;;13.40;1.83;;;;;;;;;;5020528;28;20018;-36
2023/03/10 01:51:29;;;;;;;10.00;2.28;;;;;;;;;;5020696;28;20039;-36
2023/03/10 01:53:56;;;;;;;11.32;1.90;;;;;;;;;;5019160;28;20025;-38
2023/03/10 01:56:23;;;;;;;10.45;1.50;;;;;;;;;;5020091;28;20088;-36
2023/03/10 01:58:50;;;;;;;9.30;1.75;;;;;;;;;;5018275;28;20495;-35
2023/03/10 02:01:18;;;;;;;7.63;1.67;;;;;;;;;;5010563;28;20057;-36
2023/03/10 02:03:53;;;;;;;10.75;1.77;;;;;;;;;;5010617;28;20384;-36
2023/03/10 02:06:21;;;;;;;15.75;1.70;;;;;;;;;;5010686;28;20038;-36
2023/03/10 02:08:50;;;;;;;10.27;1.67;;;;;;;;;;5010562;28;20029;-36
2023/03/10 02:11:18;;;;;;;5.95;1.20;;;;;;;;;;5012740;28;20045;-36
2023/03/10 02:13:45;;;;;;;5.97;1.75;;;;;;;;;;5014196;28;20028;-36
2023/03/10 02:16:12;;;;;;;12.10;1.55;;;;;;;;;;5013971;28;20030;-37
2023/03/10 02:18:41;;;;;;;6.72;1.73;;;;;;;;;;5014010;28;20025;-36
2023/03/10 02:21:18;;;;;;;5.88;1.48;;;;;;;;;;5014007;28;20029;-36
2023/03/10 02:24:04;;;;;;;8.20;1.65;;;;;;;;;;5013868;28;20432;-36
2023/03/10 02:26:33;;;;;;;6.15;1.50;;;;;;;;;;5013862;28;20034;-37
2023/03/10 02:29:01;;;;;;;8.52;1.50;;;;;;;;;;5013757;28;20026;-37
2023/03/10 02:31:29;;;;;;;5.90;1.30;;;;;;;;;;5013778;28;20052;-37
2023/03/10 02:33:57;;;;;;;4.78;1.40;;;;;;;;;;5013758;28;20025;-36
2023/03/10 02:36:24;;;;;;;3.08;1.23;;;;;;;;;;5013780;28;20479;-36
2023/03/10 02:38:51;;;;;;;5.35;1.35;;;;;;;;;;5013306;28;20053;-36
2023/03/10 02:41:18;;;;;;;4.28;1.40;;;;;;;;;;5013700;28;20860;-37
2023/03/10 02:43:45;;;;;;;4.95;1.40;;;;;;;;;;5013646;28;20026;-37
2023/03/10 02:46:12;;;;;;;6.47;1.30;;;;;;;;;;5013643;28;20054;-36
2023/03/10 02:48:40;;;;;;;3.63;1.20;;;;;;;;;;5013410;28;20026;-37
2023/03/10 02:51:11;;;;;;;4.25;1.33;;;;;;;;;;5013482;28;20040;-37
2023/03/10 02:53:38;;;;;;;3.22;1.20;;;;;;;;;;5013492;28;20026;-37
2023/03/10 02:56:05;;;;;;;5.90;1.42;;;;;;;;;;5013352;28;20034;-39
2023/03/10 02:58:32;;;;;;;4.07;1.63;;;;;;;;;;5013114;28;20033;-38
2023/03/10 03:00:59;;;;;;;3.42;1.10;;;;;;;;;;5013328;28;20030;-39
2023/03/10 03:03:26;;;;;;;8.00;1.42;;;;;;;;;;5013261;28;20021;-39
2023/03/10 03:05:53;;;;;;;4.50;1.30;;;;;;;;;;5013169;28;20026;-38
2023/03/10 03:08:20;;;;;;;3.60;1.27;;;;;;;;;;5013122;28;20045;-39
2023/03/10 03:10:47;;;;;;;4.03;1.30;;;;;;;;;;5013201;28;20085;-38
2023/03/10 03:13:14;;;;;;;3.42;1.45;;;;;;;;;;5013085;28;20033;-38
2023/03/10 03:15:41;;;;;;;3.50;1.00;;;;;;;;;;5013041;28;20049;-39
2023/03/10 03:18:08;;;;;;;3.75;1.30;;;;;;;;;;5012955;28;20034;-39
2023/03/10 03:20:36;;;;;;;6.82;1.55;;;;;;;;;;5012975;28;20531;-38
2023/03/10 03:23:03;;;;;;;3.67;1.13;;;;;;;;;;5012208;28;20511;-39
2023/03/10 03:25:30;;;;;;;4.57;1.40;;;;;;;;;;5012762;28;20034;-39
2023/03/10 03:27:57;;;;;;;2.22;0.90;;;;;;;;;;5012841;28;20026;-38
2023/03/10 03:30:25;;;;;;;2.45;1.08;;;;;;;;;;5012694;28;20034;-39
2023/03/10 03:32:53;;;;;;;3.50;1.13;;;;;;;;;;5012760;28;20632;-38
2023/03/10 03:35:23;;;;;;;3.55;1.30;;;;;;;;;;5012543;28;20038;-39
2023/03/10 03:37:50;;;;;;;3.50;1.40;;;;;;;;;;5012097;28;20050;-38
2023/03/10 03:40:18;;;;;;;2.10;1.10;;;;;;;;;;4994776;28;20100;-39
2023/03/10 03:42:46;;;;;;;4.88;1.35;;;;;;;;;;5012583;28;20017;-39
2023/03/10 03:45:14;;;;;;;3.20;1.13;;;;;;;;;;5012437;28;20026;-39
2023/03/10 03:47:41;;;;;;;3.20;1.08;;;;;;;;;;5012316;28;20471;-39
2023/03/10 03:50:09;;;;;;;7.32;1.10;;;;;;;;;;5012317;28;20022;-40
2023/03/10 03:52:35;;;;;;;6.43;1.30;;;;;;;;;;5012424;28;20088;-38
2023/03/10 03:55:03;;;;;;;2.47;1.20;;;;;;;;;;5012343;28;20117;-39
2023/03/10 03:57:30;;;;;;;2.42;1.08;;;;;;;;;;5012164;28;20112;-38
2023/03/10 03:59:57;;;;;;;2.50;1.10;;;;;;;;;;5012269;28;20041;-39
2023/03/10 04:02:24;;;;;;;2.72;0.90;;;;;;;;;;5012199;28;20103;-39
2023/03/10 04:04:53;;;;;;;1.75;1.05;;;;;;;;;;5012146;28;20054;-39
2023/03/10 04:07:20;;;;;;;3.28;1.33;;;;;;;;;;5012168;28;20053;-40
2023/03/10 04:09:47;;;;;;;3.47;1.17;;;;;;;;;;5012071;28;20051;-39
2023/03/10 04:12:14;;;;;;;3.22;1.20;;;;;;;;;;5012069;28;20033;-38
2023/03/10 04:14:41;;;;;;;3.10;1.25;;;;;;;;;;5011969;28;20034;-39
2023/03/10 04:17:08;;;;;;;2.92;1.10;;;;;;;;;;5011964;28;20034;-36
2023/03/10 04:19:35;;;;;;;1.85;0.93;;;;;;;;;;4994028;28;20450;-37
2023/03/10 04:22:02;;;;;;;3.50;0.93;;;;;;;;;;5011915;28;20025;-36
2023/03/10 04:24:29;;;;;;;2.33;0.90;;;;;;;;;;5011816;28;20034;-36
2023/03/10 04:26:56;;;;;;;3.78;1.02;;;;;;;;;;5011692;28;20038;-37
2023/03/10 04:29:23;;;;;;;1.77;0.90;;;;;;;;;;5011612;28;20503;-36
2023/03/10 04:31:51;;;;;;;3.83;1.00;;;;;;;;;;5011603;28;20605;-37
2023/03/10 04:34:18;;;;;;;1.88;1.00;;;;;;;;;;5011446;28;20025;-37
2023/03/10 04:36:45;;;;;;;3.75;1.10;;;;;;;;;;5011615;28;20480;-36
2023/03/10 04:39:12;;;;;;;3.70;1.10;;;;;;;;;;4993517;28;20133;-38
2023/03/10 04:41:38;;;;;;;2.58;1.10;;;;;;;;;;5011587;28;20018;-36
2023/03/10 04:44:05;;;;;;;3.85;1.35;;;;;;;;;;5011359;28;20446;-36
2023/03/10 04:46:32;;;;;;;2.55;1.00;;;;;;;;;;5011473;28;20032;-36
2023/03/10 04:48:59;;;;;;;6.60;1.52;;;;;;;;;;5011495;28;20526;-37
2023/03/10 04:51:26;;;;;;;3.72;1.02;;;;;;;;;;5011381;28;20538;-36
2023/03/10 04:53:53;;;;;;;2.63;1.08;;;;;;;;;;5011384;28;20534;-36
2023/03/10 04:56:21;;;;;;;3.67;1.10;;;;;;;;;;5011203;28;20022;-36
2023/03/10 04:58:47;;;;;;;2.22;0.90;;;;;;;;;;5011300;28;20026;-36
2023/03/10 05:01:15;;;;;;;2.72;1.08;;;;;;;;;;5011253;28;20538;-36
2023/03/10 05:03:42;;;;;;;2.58;1.25;;;;;;;;;;5011361;28;20072;-36
2023/03/10 05:06:17;;;;;;;4.28;1.38;;;;;;;;;;5011235;28;20026;-36
2023/03/10 05:08:45;;;;;;;2.45;1.13;;;;;;;;;;5011046;28;20091;-36
2023/03/10 05:11:12;;;;;;;2.80;1.10;;;;;;;;;;5011224;28;20476;-37
2023/03/10 05:13:39;;;;;;;2.60;1.20;;;;;;;;;;5011271;28;20042;-36
2023/03/10 05:16:12;;;;;;;2.05;0.98;;;;;;;;;;5011237;28;20030;-36
2023/03/10 05:18:39;;;;;;;2.40;1.05;;;;;;;;;;5011025;28;20038;-36
2023/03/10 05:21:06;;;;;;;2.45;1.00;;;;;;;;;;5011299;28;20037;-36
2023/03/10 05:23:33;;;;;;;3.92;1.00;;;;;;;;;;5011194;28;20036;-36
2023/03/10 05:26:02;;;;;;;2.50;1.10;;;;;;;;;;5011014;28;20059;-36
2023/03/10 05:28:30;;;;;;;1.92;1.02;;;;;;;;;;5010969;28;20041;-36
2023/03/10 05:30:57;;;;;;;2.47;0.98;;;;;;;;;;5011083;28;20032;-36
2023/03/10 05:33:24;;;;;;;1.63;0.85;;;;;;;;;;5011109;28;20030;-36
2023/03/10 05:35:51;;;;;;;1.90;0.90;;;;;;;;;;5011024;28;20091;-36
2023/03/10 05:38:18;;;;;;;4.00;1.30;;;;;;;;;;5010955;28;20052;-36
2023/03/10 05:40:45;;;;;;;1.67;1.00;;;;;;;;;;5010862;28;20057;-37
2023/03/10 05:43:12;;;;;;;1.85;0.90;;;;;;;;;;5010861;28;20563;-36
2023/03/10 05:45:39;;;;;;;3.47;1.05;;;;;;;;;;5012301;28;20117;-36
2023/03/10 05:48:06;;;;;;;1.40;0.95;;;;;;;;;;5014666;28;20037;-36
2023/03/10 05:50:33;;;;;;;3.88;1.15;;;;;;;;;;5014626;28;20038;-37
2023/03/10 05:53:00;;;;;;;4.38;1.10;;;;;;;;;;5014615;28;20049;-36
2023/03/10 05:55:28;;;;;;;1.60;0.90;;;;;;;;;;4996930;28;20042;-36
2023/03/10 05:57:55;;;;;;;2.90;1.02;;;;;;;;;;5014879;28;20144;-36
2023/03/10 06:00:22;;;;;;;2.28;0.93;;;;;;;;;;5015126;28;20018;-36
2023/03/10 06:02:49;;;;;;;1.55;0.93;;;;;;;;;;5030599;28;20033;-39
2023/03/10 06:05:16;;;;;;;3.63;1.05;;;;;;;;;;5034620;28;20040;-39
2023/03/10 06:07:43;;;;;;;1.58;0.98;;;;;;;;;;5034737;28;20025;-38
2023/03/10 06:10:10;;;;;;;2.53;1.33;;;;;;;;;;5034480;28;20026;-39
2023/03/10 06:12:37;;;;;;;2.40;1.08;;;;;;;;;;5034694;28;20025;-38
2023/03/10 06:15:04;;;;;;;2.88;1.00;;;;;;;;;;5034226;28;20026;-36
2023/03/10 06:17:31;;;;;;;1.92;0.70;;;;;;;;;;5033199;28;20026;-36
2023/03/10 06:19:58;;;;;;;1.98;1.08;;;;;;;;;;5034488;28;20025;-36
2023/03/10 06:22:25;;;;;;;3.10;0.90;;;;;;;;;;5034262;28;20036;-36
2023/03/10 06:24:52;;;;;;;1.80;0.90;;;;;;;;;;5034294;28;20108;-36
2023/03/10 06:27:19;;;;;;;2.28;1.08;;;;;;;;;;5034381;28;20057;-36
2023/03/10 06:29:48;;;;;;;3.10;1.00;;;;;;;;;;5034217;28;20029;-36
2023/03/10 06:32:15;;;;;;;2.28;1.27;;;;;;;;;;5034191;28;20561;-36
2023/03/10 06:34:42;;;;;;;1.92;1.02;;;;;;;;;;5034231;28;20028;-36
2023/03/10 06:37:09;;;;;;;2.78;1.00;;;;;;;;;;5034193;28;20026;-36
2023/03/10 06:39:38;;;;;;;3.03;0.93;;;;;;;;;;5033815;28;20069;-36
2023/03/10 06:42:05;;;;;;;3.58;1.17;;;;;;;;;;5033989;28;20403;-38
2023/03/10 06:44:32;;;;;;;1.83;0.95;;;;;;;;;;5033746;28;20084;-39
2023/03/10 06:47:00;;;;;;;4.80;0.88;;;;;;;;;;5034035;28;20026;-39
2023/03/10 06:49:30;;;;;;;1.65;0.80;;;;;;;;;;5033784;28;20041;-39
2023/03/10 06:51:57;;;;;;;2.80;1.00;;;;;;;;;;5033737;28;20038;-39
2023/03/10 06:54:24;;;;;;;1.95;0.90;;;;;;;;;;5033871;28;20163;-38
2023/03/10 06:56:51;;;;;;;2.13;1.00;;;;;;;;;;5180064;22;20057;-34
2023/03/10 06:59:18;;;;;;;2.42;1.00;;;;;;;;;;5033354;28;20032;-33
2023/03/10 07:01:45;;;;;;;1.55;0.88;;;;;;;;;;5033823;28;20072;-33
2023/03/10 07:04:13;;;;;;;1.92;0.95;;;;;;;;;;5033659;28;20125;-34
2023/03/10 07:06:40;;;;;;;1.98;0.85;;;;;;;;;;5033416;28;20057;-33
2023/03/10 07:09:06;;;;;;;2.00;1.10;;;;;;;;;;5033588;28;20024;-34
2023/03/10 07:11:33;;;;;;;2.58;1.00;;;;;;;;;;5033614;28;20048;-34
2023/03/10 07:14:01;;;;;;;3.50;0.98;;;;;;;;;;5015617;28;20453;-34
2023/03/10 07:16:27;;;;;;;2.03;1.05;;;;;;;;;;5033348;28;20021;-32
2023/03/10 07:18:54;;;;;;;2.00;0.93;;;;;;;;;;5033480;28;20784;-32
2023/03/10 07:21:21;;;;;;;1.75;1.20;;;;;;;;;;5033365;28;20018;-33
2023/03/10 07:23:49;;;;;;;1.65;0.85;;;;;;;;;;5033354;28;20018;-34
2023/03/10 07:26:19;;;;;;;3.30;1.15;;;;;;;;;;5033071;28;20505;-33
2023/03/10 07:28:47;;;;;;;2.08;0.98;;;;;;;;;;5033231;28;20167;-33
2023/03/10 07:31:14;;;;;;;3.35;1.13;;;;;;;;;;5033170;28;20552;-32
2023/03/10 07:33:41;;;;;;;2.72;1.10;;;;;;;;;;5033125;28;20032;-32
2023/03/10 07:36:09;;;;;;;4.95;1.30;;;;;;;;;;5032955;28;20036;-33
2023/03/10 07:38:36;;;;;;;2.47;0.90;;;;;;;;;;5033024;28;20097;-33
2023/03/10 07:41:10;;;;;;;2.70;0.95;;;;;;;;;;5033039;28;20498;-33
2023/03/10 07:43:37;;;;;;;2.70;1.17;;;;;;;;;;5032922;28;20021;-33
2023/03/10 07:46:06;;;;;;;2.83;1.00;;;;;;;;;;5032380;28;20499;-33
2023/03/10 07:48:33;;;;;;;1.67;0.93;;;;;;;;;;5032827;28;20108;-33
2023/03/10 07:51:00;;;;;;;2.08;0.82;;;;;;;;;;5032704;28;20108;-33
2023/03/10 07:53:27;;;;;;;3.63;0.90;;;;;;;;;;5014777;28;20108;-33
2023/03/10 07:55:54;;;;;;;2.63;1.00;;;;;;;;;;5032411;28;20029;-33
2023/03/10 07:58:23;;;;;;;1.48;0.90;;;;;;;;;;5014856;28;20033;-33
2023/03/10 08:00:56;;;;;;;2.00;0.90;;;;;;;;;;5032450;28;20034;-32
2023/03/10 08:03:24;;;;;;;2.47;0.90;;;;;;;;;;5032566;28;20029;-33
2023/03/10 08:05:51;;;;;;;2.65;0.90;;;;;;;;;;5032290;28;20030;-32
2023/03/10 08:08:18;;;;;;;3.20;1.17;;;;;;;;;;5032073;28;20125;-33
2023/03/10 08:10:45;;;;;;;3.08;0.95;;;;;;;;;;5032446;28;20029;-32
2023/03/10 08:13:12;;;;;;;1.50;0.90;;;;;;;;;;5032236;28;20407;-33
2023/03/10 08:15:39;;;;;;;4.07;0.98;;;;;;;;;;5032175;28;20029;-33
2023/03/10 08:18:07;;;;;;;4.57;1.02;;;;;;;;;;5032295;28;20756;-33
2023/03/10 08:20:39;;;;;;;1.88;1.00;;;;;;;;;;5032116;28;20105;-33
2023/03/10 08:23:06;;;;;;;1.83;0.90;;;;;;;;;;5031658;28;20570;-33
2023/03/10 08:25:32;;;;;;;1.42;0.90;;;;;;;;;;5031823;28;20037;-33
2023/03/10 08:27:59;;;;;;;3.03;0.90;;;;;;;;;;5031987;28;20027;-33
2023/03/10 08:30:26;;;;;;;2.90;1.00;;;;;;;;;;5032030;28;20513;-33
2023/03/10 08:32:53;;;;;;;2.22;0.80;;;;;;;;;;5032044;28;20021;-33
2023/03/10 08:35:20;;;;;;;2.00;0.90;;;;;;;;;;5032016;28;20040;-33
2023/03/10 08:37:47;;;;;;;1.30;0.80;;;;;;;;;;5031642;28;20414;-33
2023/03/10 08:40:15;;;;;;;1.92;0.85;;;;;;;;;;5031884;28;20507;-33
2023/03/10 08:42:42;;;;;;;2.83;1.00;;;;;;;;;;5031877;28;20025;-33
2023/03/10 08:45:09;;;;;;;2.00;1.00;;;;;;;;;;5031736;28;20072;-32
2023/03/10 08:47:36;;;;;;;3.05;1.00;;;;;;;;;;5031731;28;20033;-33
2023/03/10 08:50:03;;;;;;;2.00;0.98;;;;;;;;;;5031791;28;20036;-32
2023/03/10 08:52:31;;;;;;;2.85;1.20;;;;;;;;;;5031728;28;20104;-32
2023/03/10 08:54:58;;;;;;;1.60;0.80;;;;;;;;;;5031740;28;20065;-32
2023/03/10 08:57:24;;;;;;;3.40;1.08;;;;;;;;;;5031506;28;20053;-32
2023/03/10 08:59:51;;;;;;;1.83;0.90;;;;;;;;;;5031761;28;20034;-32
2023/03/10 09:02:20;;;;;;;3.85;1.02;;;;;;;;;;5031458;28;20044;-32
2023/03/10 09:04:47;;;;;;;2.17;0.95;;;;;;;;;;5031411;28;20040;-32
2023/03/10 09:07:14;;;;;;;3.50;0.93;;;;;;;;;;5030694;28;20044;-33
2023/03/10 09:09:41;;;;;;;2.33;0.90;;;;;;;;;;5028020;28;20510;-33
2023/03/10 09:12:09;;;;;;;3.05;1.13;;;;;;;;;;5024758;28;20104;-33
2023/03/10 09:14:37;;;;;;;3.47;0.82;;;;;;;;;;5011510;28;20030;-33
2023/03/10 09:17:04;;;;;;;4.60;1.30;;;;;;;;;;5019421;28;20076;-33
2023/03/10 09:19:31;;;;;;;2.28;1.10;;;;;;;;;;5011781;28;20107;-33
2023/03/10 09:21:58;;;;;;;4.43;1.05;;;;;;;;;;5015323;28;20041;-33
2023/03/10 09:24:25;;;;;;;4.30;1.10;;;;;;;;;;5015646;28;20041;-34
2023/03/10 09:26:52;;;;;;;3.33;1.02;;;;;;;;;;5015502;28;20038;-34
2023/03/10 09:29:19;;;;;;;3.15;1.00;;;;;;;;;;5023165;28;20112;-34
2023/03/10 09:31:47;;;;;;;2.10;1.02;;;;;;;;;;5028896;28;20061;-34
2023/03/10 09:34:14;;;;;;;2.97;1.35;;;;;;;;;;5021998;28;20039;-34
2023/03/10 09:36:41;;;;;;;5.30;2.42;;;;;;;;;;5023608;28;20029;-34
2023/03/10 09:39:07;;;;;;;4.53;2.00;;;;;;;;;;5032576;28;20033;-34
2023/03/10 09:41:34;;;;;;;5.40;1.67;;;;;;;;;;5031520;28;20064;-34
2023/03/10 09:44:21;;;;;;;3.55;1.90;;;;;;;;;;5025729;28;20062;-34
2023/03/10 09:46:49;;;;;;;4.43;1.88;;;;;;;;;;5028250;28;20041;-34
2023/03/10 09:49:16;;;;;;;6.40;2.30;;;;;;;;;;5033812;28;20510;-34
2023/03/10 09:51:45;;;;;;;8.02;2.25;;;;;;;;;;5034478;28;20083;-34
2023/03/10 09:54:30;;;;;;;4.53;2.15;;;;;;;;;;5035007;28;20021;-34
2023/03/10 09:57:00;;;;;;;7.35;2.22;;;;;;;;;;5034695;28;20121;-34
2023/03/10 09:59:40;;;;;;;5.50;1.67;;;;;;;;;;5034940;28;20091;-34
2023/03/10 10:02:33;;;;;;;3.20;1.80;;;;;;;;;;5034919;28;20037;-34
2023/03/10 10:05:02;;;;;;;4.50;2.03;;;;;;;;;;5030621;28;20045;-34
2023/03/10 10:07:32;;;;;;;4.70;2.10;;;;;;;;;;5034737;28;20458;-34
2023/03/10 10:10:03;;;;;;;3.38;2.00;;;;;;;;;;5034690;28;20017;-34
2023/03/10 10:12:30;;;;;;;3.15;1.70;;;;;;;;;;5034603;28;20052;-34
2023/03/10 10:14:58;;;;;;;5.43;1.88;;;;;;;;;;5034623;28;20502;-34
2023/03/10 10:17:38;;;;;;;2.85;1.80;;;;;;;;;;5034412;28;20116;-34
2023/03/10 10:20:14;;;;;;;5.22;1.80;;;;;;;;;;5034507;28;20017;-34
2023/03/10 10:22:44;;;;;;;3.13;1.60;;;;;;;;;;5034596;28;20025;-34
2023/03/10 10:25:17;;;;;;;4.47;2.03;;;;;;;;;;5034204;28;20037;-34
2023/03/10 10:27:45;;;;;;;3.10;1.20;;;;;;;;;;5034254;28;20387;-34
2023/03/10 10:30:30;;;;;;;4.07;1.65;;;;;;;;;;5034372;28;20057;-34
2023/03/10 10:33:15;;;;;;;5.07;2.05;;;;;;;;;;5034034;28;20037;-34
2023/03/10 10:35:45;;;;;;;5.53;2.17;;;;;;;;;;5034187;28;20107;-35
2023/03/10 10:38:15;;;;;;;2.85;1.77;;;;;;;;;;5034213;28;20036;-34
2023/03/10 10:40:48;;;;;;;4.25;2.03;;;;;;;;;;5034183;28;20057;-35
2023/03/10 10:43:16;;;;;;;5.45;1.90;;;;;;;;;;5034200;28;20021;-34
2023/03/10 10:45:43;;;;;;;3.30;1.92;;;;;;;;;;5033949;28;20032;-34
2023/03/10 10:48:29;;;;;;;3.17;1.83;;;;;;;;;;5017688;28;20495;-35
2023/03/10 10:50:56;;;;;;;4.05;1.80;;;;;;;;;;5014027;28;20471;-34
2023/03/10 10:53:25;;;;;;;4.63;1.85;;;;;;;;;;5013935;28;20045;-35
2023/03/10 10:56:23;;;;;;;4.45;2.22;;;;;;;;;;5013558;28;20038;-35
2023/03/10 10:59:19;;;;;;;5.65;2.20;;;;;;;;;;5002001;28;20392;-35
2023/03/10 11:01:47;;;;;;;3.83;2.03;;;;;;;;;;5014025;28;20018;-34
2023/03/10 11:04:14;;;;;;;5.10;2.05;;;;;;;;;;5013902;28;20030;-34
2023/03/10 11:06:41;;;;;;;3.17;2.03;;;;;;;;;;5013755;28;20041;-35
2023/03/10 11:09:13;;;;;;;5.13;1.90;;;;;;;;;;5013785;28;20030;-34
2023/03/10 11:11:40;;;;;;;;;;;;;;;;;;5014284;28;20034;-34
2023/03/10 11:14:13;;;;;;;5.45;2.13;;;;;;;;;;5013389;28;19924;-35
2023/03/10 11:16:55;;;;;;;6.80;2.15;;;;;;;;;;5013465;28;20038;-34
2023/03/10 11:19:22;;;;;;;;;;;;;;;;;;5013776;28;20178;-45
2023/03/10 11:21:52;;;;;;;46.72;3.78;;;;;;;;;;5013424;28;19967;-37
2023/03/10 11:24:33;;;;;;;64.72;3.78;;;;;;;;;;5013288;28;20018;-34
2023/03/10 11:27:09;;;;;;;108.47;8.18;;;;;;;;;;5013090;28;20037;-26
2023/03/10 11:29:59;;;;;;;57.33;4.22;;;;;;;;;;5013205;28;20061;-26
2023/03/10 11:32:35;;;;;;;35.70;3.60;;;;;;;;;;5013026;28;20038;-26
2023/03/10 11:35:10;;;;;;;30.25;3.70;;;;;;;;;;5013086;28;20034;-27
2023/03/10 11:37:57;;;;;;;16.02;3.65;;;;;;;;;;5012872;28;20125;-25
2023/03/10 11:40:42;;;;;;;8.60;3.05;;;;;;;;;;5002794;28;20042;-25
2023/03/10 11:43:21;;;;;;;27.13;3.50;;;;;;;;;;5012337;28;20029;-25
2023/03/10 11:45:52;;;;;;;8.43;2.78;;;;;;;;;;5012702;28;20036;-24
2023/03/10 11:48:29;;;;;;;7.53;2.83;;;;;;;;;;5018488;28;20483;-25
2023/03/10 11:51:00;;;;;;;13.27;3.33;;;;;;;;;;5012656;28;20030;-24
2023/03/10 11:53:34;;;;;;;12.52;2.85;;;;;;;;;;5012729;28;20611;-24
2023/03/10 11:56:02;;;;;;;7.78;3.33;;;;;;;;;;5011063;28;20029;-25
2023/03/10 11:58:44;;;;;;;5.57;2.75;;;;;;;;;;5026878;28;20123;-27
2023/03/10 12:01:16;;;;;;;5.28;2.80;;;;;;;;;;5026230;28;20380;-28
2023/03/10 12:03:52;;;;;;;11.10;3.42;;;;;;;;;;5013521;28;20033;-27
2023/03/10 12:06:24;;;;;;;9.32;3.13;;;;;;;;;;5031264;28;20065;-27
2023/03/10 12:08:53;;;;;;;16.02;3.75;;;;;;;;;;5004206;28;20029;-25
2023/03/10 12:11:22;;;;;;;8.45;3.33;;;;;;;;;;5020721;28;20471;-24
2023/03/10 12:13:51;;;;;;;14.05;3.47;;;;;;;;;;5025892;28;20032;-25
2023/03/10 12:16:26;;;;;;;9.68;2.80;;;;;;;;;;5031752;28;20037;-25
2023/03/10 12:18:53;;;;;;;18.75;4.28;;;;;;;;;;5031953;28;20044;-25
2023/03/10 12:21:22;;;;;;;14.30;3.08;;;;;;;;;;5031944;28;20041;-25
2023/03/10 12:23:51;;;;;;;115.85;7.18;;;;;;;;;;5015473;28;20037;-29
2023/03/10 12:26:54;;;;;;;9.77;3.20;;;;;;;;;;5011868;28;20076;-25
2023/03/10 12:29:21;;;;;;;7.00;2.78;;;;;;;;;;4913335;29;20040;-25
2023/03/10 12:31:55;;;;;;;11.98;3.08;;;;;;;;;;4998550;28;20394;-25
2023/03/10 12:34:23;;;;;;;8.63;2.45;;;;;;;;;;5012070;28;20034;-29
2023/03/10 12:36:54;;;;;;;4.75;2.03;;;;;;;;;;5018252;28;20493;-25
2023/03/10 12:39:53;;;;;;;5.90;2.33;;;;;;;;;;5031624;28;20033;-25
2023/03/10 12:42:28;;;;;;;8.48;2.63;;;;;;;;;;4977810;28;20037;-26
2023/03/10 12:45:01;;;;;;;8.50;2.55;;;;;;;;;;5025008;28;20870;-26
2023/03/10 12:47:49;;;;;;;15.98;3.35;;;;;;;;;;5023644;28;20033;-29
2023/03/10 12:50:21;;;;;;;10.85;3.28;;;;;;;;;;5031493;28;20447;-26
2023/03/10 12:52:53;;;;;;;10.32;2.60;;;;;;;;;;5031359;28;20088;-26
2023/03/10 12:55:29;;;;;;;7.53;2.77;;;;;;;;;;5023978;28;20061;-28
2023/03/10 12:58:00;;;;;;;8.27;2.92;;;;;;;;;;5016604;28;20041;-26
2023/03/10 13:00:39;;;;;;;8.43;2.80;;;;;;;;;;5011718;28;20036;-26
2023/03/10 13:03:09;;;;;;;5.20;2.30;;;;;;;;;;5011586;28;20088;-25
2023/03/10 13:05:54;;;;;;;14.30;2.53;;;;;;;;;;5011367;28;20087;-25
2023/03/10 13:08:39;;;;;;;4.65;2.40;;;;;;;;;;5011587;28;20026;-25
2023/03/10 13:11:18;;;;;;;6.35;2.15;;;;;;;;;;5011228;28;20038;-25
2023/03/10 13:13:50;;;;;;;7.00;2.40;;;;;;;;;;5013819;28;20033;-25
2023/03/10 13:16:18;;;;;;;10.27;2.40;;;;;;;;;;5018178;28;20042;-25
2023/03/10 13:18:49;;;;;;;7.90;2.25;;;;;;;;;;5016513;28;20025;-25
2023/03/10 13:21:32;;;;;;;23.17;2.58;;;;;;;;;;5016569;28;20097;-25
2023/03/10 13:24:00;;;;;;;6.35;2.17;;;;;;;;;;5016443;28;20356;-28
2023/03/10 13:26:27;;;;;;;3.53;1.80;;;;;;;;;;5019179;28;20039;-28
2023/03/10 13:28:55;;;;;;;6.03;2.08;;;;;;;;;;5022846;28;20034;-28
2023/03/10 13:31:27;;;;;;;9.02;1.92;;;;;;;;;;5017420;28;20395;-28
2023/03/10 13:33:55;;;;;;;7.00;1.98;;;;;;;;;;5023909;28;20471;-25
2023/03/10 13:36:35;;;;;;;8.98;2.10;;;;;;;;;;5029472;28;20483;-25
2023/03/10 13:39:04;;;;;;;5.40;1.90;;;;;;;;;;5024927;28;20108;-29
2023/03/10 13:41:36;;;;;;;6.97;1.77;;;;;;;;;;5027140;28;20045;-28
2023/03/10 13:44:03;;;;;;;4.18;1.70;;;;;;;;;;5026898;28;20037;-25
2023/03/10 13:46:31;;;;;;;4.05;1.50;;;;;;;;;;5027151;28;20069;-25
2023/03/10 13:49:05;;;;;;;7.07;1.73;;;;;;;;;;5029176;28;20033;-28
2023/03/10 13:51:34;;;;;;;8.68;1.95;;;;;;;;;;5028155;28;20117;-29
2023/03/10 13:54:19;;;;;;;4.30;2.00;;;;;;;;;;5029449;28;20513;-28
2023/03/10 13:56:47;;;;;;;4.82;1.90;;;;;;;;;;5026781;28;20126;-28
2023/03/10 13:59:24;;;;;;;5.03;1.70;;;;;;;;;;5028205;28;20037;-25
2023/03/10 14:01:55;;;;;;;3.22;1.90;;;;;;;;;;5027838;28;20036;-25
2023/03/10 14:04:40;;;;;;;5.80;1.90;;;;;;;;;;5010831;28;20026;-30
2023/03/10 14:07:08;;;;;;;8.15;2.35;;;;;;;;;;5030843;28;20040;-28
2023/03/10 14:09:36;;;;;;;8.23;2.10;;;;;;;;;;5033155;28;20022;-26
2023/03/10 14:12:03;;;;;;;5.32;2.05;;;;;;;;;;5026386;28;20423;-28
2023/03/10 14:14:31;;;;;;;9.65;2.17;;;;;;;;;;5024038;28;20485;-28
2023/03/10 14:16:59;;;;;;;7.38;2.28;;;;;;;;;;5022626;28;20033;-28
2023/03/10 14:19:41;;;;;;;5.97;2.42;;;;;;;;;;5024360;28;20048;-29
2023/03/10 14:22:25;;;;;;;11.23;2.60;;;;;;;;;;5030864;28;20026;-28
2023/03/10 14:24:52;;;;;;;7.43;2.20;;;;;;;;;;5024380;28;20026;-25
2023/03/10 14:27:19;;;;;;;6.25;2.05;;;;;;;;;;5020742;28;20038;-25
2023/03/10 14:29:50;;;;;;;5.10;2.25;;;;;;;;;;5033542;28;20036;-25
2023/03/10 14:32:17;;;;;;;3.25;2.40;;;;;;;;;;5033851;28;20452;-25
2023/03/10 14:34:45;;;;;;;7.55;2.05;;;;;;;;;;5033783;28;20038;-25
2023/03/10 14:37:11;;;;;;;6.40;2.35;;;;;;;;;;5033722;28;20532;-25
2023/03/10 14:39:38;;;;;;;5.03;1.70;;;;;;;;;;5031238;28;20017;-25
2023/03/10 14:42:06;;;;;;;5.47;2.10;;;;;;;;;;5027900;28;20028;-25
2023/03/10 14:44:33;;;;;;;7.57;2.30;;;;;;;;;;5033676;28;20057;-25
2023/03/10 14:47:00;;;;;;;4.68;2.42;;;;;;;;;;5030068;28;20461;-25
2023/03/10 14:49:27;;;;;;;5.18;2.22;;;;;;;;;;5005709;28;20506;-25
2023/03/10 14:51:54;;;;;;;5.30;2.65;;;;;;;;;;5024085;28;20034;-25
2023/03/10 14:54:24;;;;;;;5.25;2.83;;;;;;;;;;5022160;28;20018;-25